sensor_id;sensor_type;location;lat;lon;timestamp;pressure;altitude;pressure_sealevel;temperature;humidity
61908;BME280;47864;52.526;19.672;2023-03-03T00:00:19;101371.47;;;-0.74;100.00
61908;BME280;47864;52.526;19.672;2023-03-03T00:02:21;101363.84;;;-0.79;100.00
61908;BME280;47864;52.526;19.672;2023-03-03T00:04:22;101365.00;;;-0.86;100.00
61908;BME280;47864;52.526;19.672;2023-03-03T00:06:24;101355.91;;;-0.97;100.00
61908;BME280;47864;52.526;19.672;2023-03-03T00:08:25;101363.41;;;-0.90;100.00
61908;BME280;47864;52.526;19.672;2023-03-03T00:10:28;101372.56;;;-1.01;100.00
61908;BME280;47864;52.526;19.672;2023-03-03T00:12:30;101369.22;;;-1.05;100.00
61908;BME280;47864;52.526;19.672;2023-03-03T00:14:32;101357.94;;;-1.05;100.00
61908;BME280;47864;52.526;19.672;2023-03-03T00:16:37;101360.88;;;-0.91;100.00
61908;BME280;47864;52.526;19.672;2023-03-03T00:18:42;101360.03;;;-0.92;100.00
61908;BME280;47864;52.526;19.672;2023-03-03T00:20:48;101332.94;;;-1.09;100.00
61908;BME280;47864;52.526;19.672;2023-03-03T00:22:50;101359.41;;;-0.98;100.00
61908;BME280;47864;52.526;19.672;2023-03-03T00:24:52;101362.31;;;-1.06;100.00
61908;BME280;47864;52.526;19.672;2023-03-03T00:26:55;101355.66;;;-1.36;100.00
61908;BME280;47864;52.526;19.672;2023-03-03T00:28:57;101355.25;;;-1.26;100.00
61908;BME280;47864;52.526;19.672;2023-03-03T00:30:59;101352.19;;;-1.13;100.00
61908;BME280;47864;52.526;19.672;2023-03-03T00:33:12;101353.03;;;-1.13;100.00
61908;BME280;47864;52.526;19.672;2023-03-03T00:37:33;101334.81;;;-1.13;100.00
61908;BME280;47864;52.526;19.672;2023-03-03T00:39:37;101331.41;;;-1.15;100.00
61908;BME280;47864;52.526;19.672;2023-03-03T00:41:39;101329.44;;;-1.32;100.00
61908;BME280;47864;52.526;19.672;2023-03-03T00:43:40;101319.03;;;-1.32;100.00
61908;BME280;47864;52.526;19.672;2023-03-03T00:45:45;101318.97;;;-1.30;100.00
61908;BME280;47864;52.526;19.672;2023-03-03T00:47:47;101299.31;;;-1.37;100.00
61908;BME280;47864;52.526;19.672;2023-03-03T00:49:49;101315.25;;;-1.23;100.00
61908;BME280;47864;52.526;19.672;2023-03-03T00:51:51;101318.88;;;-1.27;100.00
61908;BME280;47864;52.526;19.672;2023-03-03T00:53:53;101313.38;;;-1.20;100.00
61908;BME280;47864;52.526;19.672;2023-03-03T00:55:56;101302.41;;;-1.28;100.00
61908;BME280;47864;52.526;19.672;2023-03-03T00:57:58;101301.72;;;-1.09;100.00
61908;BME280;47864;52.526;19.672;2023-03-03T00:59:59;101293.59;;;-1.02;100.00
61908;BME280;47864;52.526;19.672;2023-03-03T01:02:00;101281.91;;;-0.92;100.00
61908;BME280;47864;52.526;19.672;2023-03-03T01:04:02;101248.81;;;-1.10;100.00
61908;BME280;47864;52.526;19.672;2023-03-03T01:06:05;101266.59;;;-0.99;100.00
61908;BME280;47864;52.526;19.672;2023-03-03T01:08:06;101272.09;;;-1.07;100.00
61908;BME280;47864;52.526;19.672;2023-03-03T01:10:08;101270.34;;;-1.06;100.00
61908;BME280;47864;52.526;19.672;2023-03-03T01:12:11;101264.28;;;-1.07;100.00
61908;BME280;47864;52.526;19.672;2023-03-03T01:14:12;101250.00;;;-1.19;100.00
61908;BME280;47864;52.526;19.672;2023-03-03T01:16:14;101254.97;;;-1.12;100.00
61908;BME280;47864;52.526;19.672;2023-03-03T01:18:16;101249.16;;;-1.41;100.00
61908;BME280;47864;52.526;19.672;2023-03-03T01:20:17;101264.03;;;-1.23;100.00
61908;BME280;47864;52.526;19.672;2023-03-03T01:22:19;101248.06;;;-1.35;100.00
61908;BME280;47864;52.526;19.672;2023-03-03T01:24:20;101256.31;;;-1.24;100.00
61908;BME280;47864;52.526;19.672;2023-03-03T01:26:22;101257.75;;;-1.17;100.00
61908;BME280;47864;52.526;19.672;2023-03-03T01:28:24;101244.97;;;-1.23;100.00
61908;BME280;47864;52.526;19.672;2023-03-03T01:30:25;101233.41;;;-1.38;100.00
61908;BME280;47864;52.526;19.672;2023-03-03T01:32:27;101266.09;;;-1.31;100.00
61908;BME280;47864;52.526;19.672;2023-03-03T01:34:28;101236.06;;;-1.39;100.00
61908;BME280;47864;52.526;19.672;2023-03-03T01:36:30;101241.97;;;-1.34;100.00
61908;BME280;47864;52.526;19.672;2023-03-03T01:38:34;101251.69;;;-1.39;100.00
61908;BME280;47864;52.526;19.672;2023-03-03T01:40:36;101256.59;;;-1.32;100.00
61908;BME280;47864;52.526;19.672;2023-03-03T01:42:38;101266.78;;;-1.26;100.00
61908;BME280;47864;52.526;19.672;2023-03-03T01:44:39;101244.41;;;-1.31;100.00
61908;BME280;47864;52.526;19.672;2023-03-03T01:47:14;101229.78;;;-1.34;100.00
61908;BME280;47864;52.526;19.672;2023-03-03T01:49:17;101250.81;;;-1.40;100.00
61908;BME280;47864;52.526;19.672;2023-03-03T01:51:25;101239.94;;;-1.49;100.00
61908;BME280;47864;52.526;19.672;2023-03-03T01:53:42;101245.59;;;-1.62;100.00
61908;BME280;47864;52.526;19.672;2023-03-03T01:55:45;101233.00;;;-1.72;100.00
61908;BME280;47864;52.526;19.672;2023-03-03T01:57:55;101254.38;;;-1.64;100.00
61908;BME280;47864;52.526;19.672;2023-03-03T01:59:59;101240.34;;;-1.60;100.00
61908;BME280;47864;52.526;19.672;2023-03-03T02:02:03;101254.16;;;-1.58;100.00
61908;BME280;47864;52.526;19.672;2023-03-03T02:04:05;101216.72;;;-1.77;100.00
61908;BME280;47864;52.526;19.672;2023-03-03T02:06:10;101253.00;;;-1.51;100.00
61908;BME280;47864;52.526;19.672;2023-03-03T02:08:16;101259.78;;;-1.47;100.00
61908;BME280;47864;52.526;19.672;2023-03-03T02:10:21;101252.16;;;-1.51;100.00
61908;BME280;47864;52.526;19.672;2023-03-03T02:14:38;101261.16;;;-1.60;100.00
61908;BME280;47864;52.526;19.672;2023-03-03T02:16:40;101255.97;;;-1.60;100.00
61908;BME280;47864;52.526;19.672;2023-03-03T02:18:45;101245.66;;;-1.63;100.00
61908;BME280;47864;52.526;19.672;2023-03-03T02:23:12;101258.56;;;-1.60;100.00
61908;BME280;47864;52.526;19.672;2023-03-03T02:25:45;101259.22;;;-1.78;100.00
61908;BME280;47864;52.526;19.672;2023-03-03T02:27:49;101254.44;;;-1.66;100.00
61908;BME280;47864;52.526;19.672;2023-03-03T02:29:50;101253.88;;;-1.74;100.00
61908;BME280;47864;52.526;19.672;2023-03-03T02:31:52;101233.47;;;-1.84;100.00
61908;BME280;47864;52.526;19.672;2023-03-03T02:33:54;101255.56;;;-1.73;100.00
61908;BME280;47864;52.526;19.672;2023-03-03T02:35:56;101258.34;;;-1.77;100.00
61908;BME280;47864;52.526;19.672;2023-03-03T02:38:05;101253.78;;;-1.72;100.00
61908;BME280;47864;52.526;19.672;2023-03-03T02:40:08;101259.22;;;-1.55;100.00
61908;BME280;47864;52.526;19.672;2023-03-03T02:42:22;101258.88;;;-1.46;100.00
61908;BME280;47864;52.526;19.672;2023-03-03T02:44:28;101239.25;;;-1.55;100.00
61908;BME280;47864;52.526;19.672;2023-03-03T02:46:34;101234.25;;;-1.59;100.00
61908;BME280;47864;52.526;19.672;2023-03-03T02:48:37;101260.91;;;-1.54;100.00
61908;BME280;47864;52.526;19.672;2023-03-03T02:50:38;101251.97;;;-1.47;100.00
61908;BME280;47864;52.526;19.672;2023-03-03T02:52:40;101247.91;;;-1.54;100.00
61908;BME280;47864;52.526;19.672;2023-03-03T02:54:41;101247.63;;;-1.46;100.00
61908;BME280;47864;52.526;19.672;2023-03-03T02:56:43;101241.50;;;-1.67;100.00
61908;BME280;47864;52.526;19.672;2023-03-03T02:58:44;101243.19;;;-1.66;100.00
61908;BME280;47864;52.526;19.672;2023-03-03T03:00:46;101232.59;;;-1.62;100.00
61908;BME280;47864;52.526;19.672;2023-03-03T03:02:47;101240.03;;;-1.74;100.00
61908;BME280;47864;52.526;19.672;2023-03-03T03:04:49;101238.94;;;-1.69;100.00
61908;BME280;47864;52.526;19.672;2023-03-03T03:06:51;101239.84;;;-1.93;100.00
61908;BME280;47864;52.526;19.672;2023-03-03T03:08:53;101238.91;;;-1.90;100.00
61908;BME280;47864;52.526;19.672;2023-03-03T03:10:54;101221.72;;;-1.95;100.00
61908;BME280;47864;52.526;19.672;2023-03-03T03:12:56;101234.75;;;-1.96;100.00
61908;BME280;47864;52.526;19.672;2023-03-03T03:14:57;101235.72;;;-1.75;100.00
61908;BME280;47864;52.526;19.672;2023-03-03T03:16:59;101242.72;;;-1.77;100.00
61908;BME280;47864;52.526;19.672;2023-03-03T03:19:01;101216.84;;;-2.04;100.00
61908;BME280;47864;52.526;19.672;2023-03-03T03:21:10;101239.75;;;-1.90;100.00
61908;BME280;47864;52.526;19.672;2023-03-03T03:23:12;101241.09;;;-1.80;100.00
61908;BME280;47864;52.526;19.672;2023-03-03T03:25:13;101242.78;;;-1.79;100.00
61908;BME280;47864;52.526;19.672;2023-03-03T03:27:14;101224.72;;;-1.82;100.00
61908;BME280;47864;52.526;19.672;2023-03-03T03:29:16;101233.56;;;-1.64;100.00
61908;BME280;47864;52.526;19.672;2023-03-03T03:31:18;101238.09;;;-1.69;100.00
61908;BME280;47864;52.526;19.672;2023-03-03T03:33:20;101229.09;;;-1.61;100.00
61908;BME280;47864;52.526;19.672;2023-03-03T03:35:21;101217.03;;;-1.63;100.00
61908;BME280;47864;52.526;19.672;2023-03-03T03:37:23;101211.69;;;-1.59;100.00
61908;BME280;47864;52.526;19.672;2023-03-03T03:39:24;101216.94;;;-1.60;100.00
61908;BME280;47864;52.526;19.672;2023-03-03T03:41:26;101230.09;;;-1.65;100.00
61908;BME280;47864;52.526;19.672;2023-03-03T03:43:27;101228.84;;;-1.55;100.00
61908;BME280;47864;52.526;19.672;2023-03-03T03:45:29;101227.91;;;-1.52;100.00
61908;BME280;47864;52.526;19.672;2023-03-03T03:47:30;101226.50;;;-1.39;100.00
61908;BME280;47864;52.526;19.672;2023-03-03T03:49:32;101218.91;;;-1.43;100.00
61908;BME280;47864;52.526;19.672;2023-03-03T03:51:33;101207.53;;;-1.41;100.00
61908;BME280;47864;52.526;19.672;2023-03-03T03:53:35;101218.19;;;-1.25;100.00
61908;BME280;47864;52.526;19.672;2023-03-03T03:55:36;101208.44;;;-1.42;100.00
61908;BME280;47864;52.526;19.672;2023-03-03T03:57:38;101208.66;;;-1.48;100.00
61908;BME280;47864;52.526;19.672;2023-03-03T03:59:39;101225.66;;;-1.39;100.00
61908;BME280;47864;52.526;19.672;2023-03-03T04:01:40;101190.63;;;-1.52;100.00
61908;BME280;47864;52.526;19.672;2023-03-03T04:03:42;101162.97;;;-1.77;100.00
61908;BME280;47864;52.526;19.672;2023-03-03T04:05:43;101221.31;;;-1.39;100.00
61908;BME280;47864;52.526;19.672;2023-03-03T04:07:45;101211.88;;;-1.41;100.00
61908;BME280;47864;52.526;19.672;2023-03-03T04:09:47;101214.69;;;-1.24;100.00
61908;BME280;47864;52.526;19.672;2023-03-03T04:11:48;101217.78;;;-1.38;100.00
61908;BME280;47864;52.526;19.672;2023-03-03T04:13:49;101219.34;;;-1.56;100.00
61908;BME280;47864;52.526;19.672;2023-03-03T04:15:51;101203.84;;;-1.35;100.00
61908;BME280;47864;52.526;19.672;2023-03-03T04:17:52;101207.59;;;-1.42;100.00
61908;BME280;47864;52.526;19.672;2023-03-03T04:19:54;101196.88;;;-1.57;100.00
61908;BME280;47864;52.526;19.672;2023-03-03T04:21:55;101191.03;;;-1.63;100.00
61908;BME280;47864;52.526;19.672;2023-03-03T04:23:57;101200.25;;;-1.55;100.00
61908;BME280;47864;52.526;19.672;2023-03-03T04:25:58;101191.91;;;-1.41;100.00
61908;BME280;47864;52.526;19.672;2023-03-03T04:28:00;101196.13;;;-1.38;100.00
61908;BME280;47864;52.526;19.672;2023-03-03T04:30:04;101202.97;;;-1.14;100.00
61908;BME280;47864;52.526;19.672;2023-03-03T04:32:06;101209.69;;;-1.30;100.00
61908;BME280;47864;52.526;19.672;2023-03-03T04:34:08;101197.19;;;-1.42;100.00
61908;BME280;47864;52.526;19.672;2023-03-03T04:36:09;101220.94;;;-1.30;100.00
61908;BME280;47864;52.526;19.672;2023-03-03T04:38:11;101213.69;;;-1.22;100.00
61908;BME280;47864;52.526;19.672;2023-03-03T04:40:12;101212.34;;;-1.32;100.00
61908;BME280;47864;52.526;19.672;2023-03-03T04:42:14;101211.88;;;-1.41;100.00
61908;BME280;47864;52.526;19.672;2023-03-03T04:44:16;101202.31;;;-1.41;100.00
61908;BME280;47864;52.526;19.672;2023-03-03T04:46:17;101193.00;;;-1.46;100.00
61908;BME280;47864;52.526;19.672;2023-03-03T04:48:19;101215.63;;;-1.27;100.00
61908;BME280;47864;52.526;19.672;2023-03-03T04:50:20;101215.03;;;-1.33;100.00
61908;BME280;47864;52.526;19.672;2023-03-03T04:52:21;101211.44;;;-1.31;100.00
61908;BME280;47864;52.526;19.672;2023-03-03T04:54:23;101218.53;;;-1.34;100.00
61908;BME280;47864;52.526;19.672;2023-03-03T04:56:24;101206.56;;;-1.17;100.00
61908;BME280;47864;52.526;19.672;2023-03-03T04:58:26;101224.78;;;-1.17;100.00
61908;BME280;47864;52.526;19.672;2023-03-03T05:00:27;101222.94;;;-1.15;100.00
61908;BME280;47864;52.526;19.672;2023-03-03T05:02:29;101223.50;;;-1.28;100.00
61908;BME280;47864;52.526;19.672;2023-03-03T05:04:31;101210.91;;;-1.17;100.00
61908;BME280;47864;52.526;19.672;2023-03-03T05:06:33;101210.16;;;-0.99;100.00
61908;BME280;47864;52.526;19.672;2023-03-03T05:08:34;101220.84;;;-1.27;100.00
61908;BME280;47864;52.526;19.672;2023-03-03T05:10:36;101212.66;;;-1.39;100.00
61908;BME280;47864;52.526;19.672;2023-03-03T05:12:37;101200.69;;;-1.43;100.00
61908;BME280;47864;52.526;19.672;2023-03-03T05:14:39;101216.28;;;-1.22;100.00
61908;BME280;47864;52.526;19.672;2023-03-03T05:16:41;101210.84;;;-1.37;100.00
61908;BME280;47864;52.526;19.672;2023-03-03T05:18:42;101213.31;;;-1.12;100.00
61908;BME280;47864;52.526;19.672;2023-03-03T05:20:44;101206.63;;;-1.18;100.00
61908;BME280;47864;52.526;19.672;2023-03-03T05:22:45;101186.94;;;-1.25;100.00
61908;BME280;47864;52.526;19.672;2023-03-03T05:24:47;101204.72;;;-1.15;100.00
61908;BME280;47864;52.526;19.672;2023-03-03T05:26:48;101205.78;;;-0.98;100.00
61908;BME280;47864;52.526;19.672;2023-03-03T05:28:49;101205.94;;;-1.01;100.00
61908;BME280;47864;52.526;19.672;2023-03-03T05:30:51;101201.56;;;-1.23;100.00
61908;BME280;47864;52.526;19.672;2023-03-03T05:32:52;101212.78;;;-1.21;100.00
61908;BME280;47864;52.526;19.672;2023-03-03T05:34:54;101195.53;;;-1.23;100.00
61908;BME280;47864;52.526;19.672;2023-03-03T05:36:55;101197.22;;;-1.22;100.00
61908;BME280;47864;52.526;19.672;2023-03-03T05:38:57;101187.44;;;-1.59;100.00
61908;BME280;47864;52.526;19.672;2023-03-03T05:40:58;101203.88;;;-1.37;100.00
61908;BME280;47864;52.526;19.672;2023-03-03T05:43:00;101198.97;;;-1.23;100.00
61908;BME280;47864;52.526;19.672;2023-03-03T05:45:01;101195.16;;;-1.14;100.00
61908;BME280;47864;52.526;19.672;2023-03-03T05:47:03;101184.50;;;-1.30;100.00
61908;BME280;47864;52.526;19.672;2023-03-03T05:49:04;101189.97;;;-1.36;100.00
61908;BME280;47864;52.526;19.672;2023-03-03T05:51:06;101192.94;;;-1.45;100.00
61908;BME280;47864;52.526;19.672;2023-03-03T05:53:07;101173.06;;;-1.47;100.00
61908;BME280;47864;52.526;19.672;2023-03-03T05:55:09;101174.34;;;-1.36;100.00
61908;BME280;47864;52.526;19.672;2023-03-03T05:57:11;101178.53;;;-1.32;100.00
61908;BME280;47864;52.526;19.672;2023-03-03T05:59:12;101182.97;;;-1.34;100.00
61908;BME280;47864;52.526;19.672;2023-03-03T06:01:13;101162.50;;;-1.43;100.00
61908;BME280;47864;52.526;19.672;2023-03-03T06:03:15;101193.00;;;-1.25;100.00
61908;BME280;47864;52.526;19.672;2023-03-03T06:05:16;101200.38;;;-1.36;100.00
61908;BME280;47864;52.526;19.672;2023-03-03T06:07:18;101186.78;;;-1.42;100.00
61908;BME280;47864;52.526;19.672;2023-03-03T06:09:19;101189.88;;;-1.33;100.00
61908;BME280;47864;52.526;19.672;2023-03-03T06:11:21;101195.13;;;-1.34;100.00
61908;BME280;47864;52.526;19.672;2023-03-03T06:13:22;101186.63;;;-1.39;100.00
61908;BME280;47864;52.526;19.672;2023-03-03T06:15:24;101185.31;;;-1.28;100.00
61908;BME280;47864;52.526;19.672;2023-03-03T06:17:25;101188.41;;;-1.18;100.00
61908;BME280;47864;52.526;19.672;2023-03-03T06:19:27;101198.00;;;-1.20;100.00
61908;BME280;47864;52.526;19.672;2023-03-03T06:21:28;101197.31;;;-1.24;100.00
61908;BME280;47864;52.526;19.672;2023-03-03T06:23:30;101188.75;;;-1.27;100.00
61908;BME280;47864;52.526;19.672;2023-03-03T06:25:31;101198.72;;;-1.38;100.00
61908;BME280;47864;52.526;19.672;2023-03-03T06:27:33;101183.13;;;-1.38;100.00
61908;BME280;47864;52.526;19.672;2023-03-03T06:29:34;101195.78;;;-1.29;100.00
61908;BME280;47864;52.526;19.672;2023-03-03T06:31:36;101181.38;;;-1.16;100.00
61908;BME280;47864;52.526;19.672;2023-03-03T06:33:38;101182.72;;;-1.28;100.00
61908;BME280;47864;52.526;19.672;2023-03-03T06:35:39;101169.28;;;-1.17;100.00
61908;BME280;47864;52.526;19.672;2023-03-03T06:37:41;101144.84;;;-1.35;100.00
61908;BME280;47864;52.526;19.672;2023-03-03T06:39:42;101134.91;;;-1.25;100.00
61908;BME280;47864;52.526;19.672;2023-03-03T06:41:44;101176.88;;;-1.12;100.00
61908;BME280;47864;52.526;19.672;2023-03-03T06:43:45;101177.84;;;-1.15;100.00
61908;BME280;47864;52.526;19.672;2023-03-03T06:45:47;101143.19;;;-1.16;100.00
61908;BME280;47864;52.526;19.672;2023-03-03T06:47:48;101171.50;;;-1.08;100.00
61908;BME280;47864;52.526;19.672;2023-03-03T06:49:50;101178.56;;;-1.11;100.00
61908;BME280;47864;52.526;19.672;2023-03-03T06:51:51;101178.63;;;-0.91;100.00
61908;BME280;47864;52.526;19.672;2023-03-03T06:53:56;101180.91;;;-1.05;100.00
61908;BME280;47864;52.526;19.672;2023-03-03T06:55:58;101182.94;;;-1.12;100.00
61908;BME280;47864;52.526;19.672;2023-03-03T06:58:00;101189.41;;;-1.00;100.00
61908;BME280;47864;52.526;19.672;2023-03-03T07:00:23;101182.97;;;-0.92;100.00
61908;BME280;47864;52.526;19.672;2023-03-03T07:02:24;101165.81;;;-0.97;100.00
61908;BME280;47864;52.526;19.672;2023-03-03T07:04:31;101187.28;;;-0.91;100.00
61908;BME280;47864;52.526;19.672;2023-03-03T07:06:33;101163.00;;;-0.91;100.00
61908;BME280;47864;52.526;19.672;2023-03-03T07:08:36;101176.59;;;-0.64;100.00
61908;BME280;47864;52.526;19.672;2023-03-03T07:10:38;101170.91;;;-0.74;100.00
61908;BME280;47864;52.526;19.672;2023-03-03T07:12:39;101176.13;;;-0.74;100.00
61908;BME280;47864;52.526;19.672;2023-03-03T07:14:44;101200.50;;;-0.55;100.00
61908;BME280;47864;52.526;19.672;2023-03-03T07:16:46;101200.09;;;-0.46;100.00
61908;BME280;47864;52.526;19.672;2023-03-03T07:18:56;101210.78;;;-0.92;100.00
61908;BME280;47864;52.526;19.672;2023-03-03T07:21:51;101214.28;;;-0.93;100.00
61908;BME280;47864;52.526;19.672;2023-03-03T07:23:31;101194.44;;;-1.18;100.00
61908;BME280;47864;52.526;19.672;2023-03-03T07:25:36;101172.72;;;-1.17;100.00
61908;BME280;47864;52.526;19.672;2023-03-03T07:27:38;101194.28;;;-0.93;100.00
61908;BME280;47864;52.526;19.672;2023-03-03T07:29:39;101174.44;;;-0.95;100.00
61908;BME280;47864;52.526;19.672;2023-03-03T07:31:41;101194.88;;;-0.86;100.00
61908;BME280;47864;52.526;19.672;2023-03-03T07:33:46;101193.97;;;-0.65;100.00
61908;BME280;47864;52.526;19.672;2023-03-03T07:35:47;101181.22;;;-0.71;100.00
61908;BME280;47864;52.526;19.672;2023-03-03T07:37:49;101198.56;;;-0.50;100.00
61908;BME280;47864;52.526;19.672;2023-03-03T07:39:51;101166.34;;;-0.49;100.00
61908;BME280;47864;52.526;19.672;2023-03-03T07:41:58;101187.47;;;-0.55;100.00
61908;BME280;47864;52.526;19.672;2023-03-03T07:44:13;101178.59;;;-0.71;100.00
61908;BME280;47864;52.526;19.672;2023-03-03T07:46:41;101200.50;;;-0.34;100.00
61908;BME280;47864;52.526;19.672;2023-03-03T07:48:43;101189.09;;;-0.52;100.00
61908;BME280;47864;52.526;19.672;2023-03-03T07:50:45;101211.06;;;-0.58;100.00
61908;BME280;47864;52.526;19.672;2023-03-03T07:52:56;101213.91;;;-0.64;100.00
61908;BME280;47864;52.526;19.672;2023-03-03T07:55:00;101227.06;;;-0.67;100.00
61908;BME280;47864;52.526;19.672;2023-03-03T07:57:11;101235.75;;;-0.66;100.00
61908;BME280;47864;52.526;19.672;2023-03-03T07:59:20;101246.09;;;-0.45;100.00
61908;BME280;47864;52.526;19.672;2023-03-03T08:01:27;101255.53;;;-0.62;100.00
61908;BME280;47864;52.526;19.672;2023-03-03T08:03:34;101244.63;;;-0.92;100.00
61908;BME280;47864;52.526;19.672;2023-03-03T08:05:40;101237.66;;;-0.71;100.00
61908;BME280;47864;52.526;19.672;2023-03-03T08:07:42;101248.81;;;-0.48;100.00
61908;BME280;47864;52.526;19.672;2023-03-03T08:14:09;101233.72;;;-0.60;100.00
61908;BME280;47864;52.526;19.672;2023-03-03T08:18:26;101236.69;;;-0.28;100.00
61908;BME280;47864;52.526;19.672;2023-03-03T08:22:34;101257.53;;;-0.49;100.00
61908;BME280;47864;52.526;19.672;2023-03-03T08:24:36;101268.44;;;-0.59;100.00
61908;BME280;47864;52.526;19.672;2023-03-03T08:26:38;101260.94;;;-0.67;100.00
61908;BME280;47864;52.526;19.672;2023-03-03T08:28:40;101251.97;;;-0.60;100.00
61908;BME280;47864;52.526;19.672;2023-03-03T08:30:42;101269.81;;;-0.51;100.00
61908;BME280;47864;52.526;19.672;2023-03-03T08:32:44;101248.19;;;-0.53;100.00
61908;BME280;47864;52.526;19.672;2023-03-03T08:34:46;101271.75;;;-0.15;100.00
61908;BME280;47864;52.526;19.672;2023-03-03T08:36:47;101268.16;;;-0.13;100.00
61908;BME280;47864;52.526;19.672;2023-03-03T08:38:49;101250.19;;;-0.59;100.00
61908;BME280;47864;52.526;19.672;2023-03-03T08:40:51;101261.63;;;-0.63;100.00
61908;BME280;47864;52.526;19.672;2023-03-03T08:42:53;101257.75;;;-0.33;100.00
61908;BME280;47864;52.526;19.672;2023-03-03T08:44:54;101260.63;;;-0.39;100.00
61908;BME280;47864;52.526;19.672;2023-03-03T08:46:56;101261.91;;;-0.29;100.00
61908;BME280;47864;52.526;19.672;2023-03-03T08:48:57;101256.06;;;-0.54;100.00
61908;BME280;47864;52.526;19.672;2023-03-03T08:50:59;101264.78;;;-0.55;100.00
61908;BME280;47864;52.526;19.672;2023-03-03T08:53:00;101249.72;;;-0.69;100.00
61908;BME280;47864;52.526;19.672;2023-03-03T08:55:03;101258.97;;;-0.62;100.00
61908;BME280;47864;52.526;19.672;2023-03-03T08:57:04;101262.91;;;-0.52;100.00
61908;BME280;47864;52.526;19.672;2023-03-03T08:59:06;101260.66;;;-0.41;100.00
61908;BME280;47864;52.526;19.672;2023-03-03T09:01:07;101246.16;;;-0.46;100.00
61908;BME280;47864;52.526;19.672;2023-03-03T09:03:09;101207.50;;;-0.57;100.00
61908;BME280;47864;52.526;19.672;2023-03-03T09:05:11;101254.69;;;-0.22;100.00
61908;BME280;47864;52.526;19.672;2023-03-03T09:07:13;101253.38;;;-0.12;100.00
61908;BME280;47864;52.526;19.672;2023-03-03T09:09:14;101252.06;;;-0.02;100.00
61908;BME280;47864;52.526;19.672;2023-03-03T09:11:23;101247.66;;;-0.20;100.00
61908;BME280;47864;52.526;19.672;2023-03-03T09:13:25;101254.00;;;-0.07;100.00
61908;BME280;47864;52.526;19.672;2023-03-03T09:15:28;101257.94;;;-0.17;100.00
61908;BME280;47864;52.526;19.672;2023-03-03T09:17:34;101259.44;;;-0.32;100.00
61908;BME280;47864;52.526;19.672;2023-03-03T09:19:36;101265.22;;;-0.05;100.00
61908;BME280;47864;52.526;19.672;2023-03-03T09:21:37;101261.25;;;-0.14;100.00
61908;BME280;47864;52.526;19.672;2023-03-03T09:23:41;101261.31;;;-0.15;100.00
61908;BME280;47864;52.526;19.672;2023-03-03T09:25:43;101258.66;;;-0.14;100.00
61908;BME280;47864;52.526;19.672;2023-03-03T09:27:46;101259.72;;;-0.18;100.00
61908;BME280;47864;52.526;19.672;2023-03-03T09:29:47;101250.53;;;-0.26;100.00
61908;BME280;47864;52.526;19.672;2023-03-03T09:31:51;101254.22;;;-0.32;100.00
61908;BME280;47864;52.526;19.672;2023-03-03T09:33:54;101247.66;;;-0.20;100.00
61908;BME280;47864;52.526;19.672;2023-03-03T09:38:26;101246.44;;;0.07;100.00
61908;BME280;47864;52.526;19.672;2023-03-03T09:40:45;101237.59;;;-0.09;100.00
61908;BME280;47864;52.526;19.672;2023-03-03T09:43:01;101224.06;;;0.02;100.00
61908;BME280;47864;52.526;19.672;2023-03-03T09:52:21;101224.38;;;0.14;100.00
61908;BME280;47864;52.526;19.672;2023-03-03T09:55:15;101230.06;;;0.04;100.00
61908;BME280;47864;52.526;19.672;2023-03-03T09:57:51;101222.38;;;0.00;100.00
61908;BME280;47864;52.526;19.672;2023-03-03T10:00:21;101225.06;;;-0.01;100.00
61908;BME280;47864;52.526;19.672;2023-03-03T10:12:32;101209.94;;;0.07;100.00
61908;BME280;47864;52.526;19.672;2023-03-03T10:19:36;101223.38;;;-0.02;100.00
61908;BME280;47864;52.526;19.672;2023-03-03T10:21:49;101218.25;;;0.15;100.00
61908;BME280;47864;52.526;19.672;2023-03-03T10:26:05;101225.00;;;0.19;100.00
61908;BME280;47864;52.526;19.672;2023-03-03T10:33:18;101227.56;;;0.40;100.00
61908;BME280;47864;52.526;19.672;2023-03-03T10:35:38;101232.22;;;0.14;100.00
61908;BME280;47864;52.526;19.672;2023-03-03T10:42:23;101233.47;;;0.06;100.00
61908;BME280;47864;52.526;19.672;2023-03-03T10:45:00;101225.41;;;0.10;100.00
61908;BME280;47864;52.526;19.672;2023-03-03T10:47:14;101231.03;;;0.01;100.00
61908;BME280;47864;52.526;19.672;2023-03-03T10:49:55;101232.47;;;0.27;100.00
61908;BME280;47864;52.526;19.672;2023-03-03T10:56:52;101237.03;;;0.03;100.00
61908;BME280;47864;52.526;19.672;2023-03-03T10:59:33;101246.03;;;0.16;100.00
61908;BME280;47864;52.526;19.672;2023-03-03T11:01:47;101240.22;;;0.10;100.00
61908;BME280;47864;52.526;19.672;2023-03-03T11:06:21;101229.25;;;0.22;100.00
61908;BME280;47864;52.526;19.672;2023-03-03T11:08:45;101229.78;;;0.10;100.00
61908;BME280;47864;52.526;19.672;2023-03-03T11:11:17;101225.66;;;-0.15;100.00
61908;BME280;47864;52.526;19.672;2023-03-03T11:13:24;101226.91;;;-0.03;100.00
61908;BME280;47864;52.526;19.672;2023-03-03T11:25:29;101214.06;;;0.11;100.00
61908;BME280;47864;52.526;19.672;2023-03-03T11:30:17;101212.88;;;0.18;100.00
61908;BME280;47864;52.526;19.672;2023-03-03T11:32:40;101194.75;;;-0.04;100.00
61908;BME280;47864;52.526;19.672;2023-03-03T11:37:08;101203.16;;;0.22;100.00
61908;BME280;47864;52.526;19.672;2023-03-03T11:39:13;101186.22;;;0.12;100.00
61908;BME280;47864;52.526;19.672;2023-03-03T11:41:30;101202.88;;;0.28;100.00
61908;BME280;47864;52.526;19.672;2023-03-03T11:43:46;101193.41;;;0.25;100.00
61908;BME280;47864;52.526;19.672;2023-03-03T11:45:54;101193.22;;;0.49;100.00
61908;BME280;47864;52.526;19.672;2023-03-03T11:50:07;101186.72;;;0.38;100.00